Tiempo atmosférico en la estación meteorológica de Leciñena, Zaragoza (405 m.)



Fecha
DESCASC
Temp. máxima en grados centígrados (hora)
DESCASC
Temp. mínima en grados centígrados (hora)
DESCASC
Temp. media en grados centígrados
DESCASC
Racha de viento máxima en m/sg (hora)
DESCASC
Velocidad máxima media en intervalos de 10 minutos(hora)
DESCASC
Precipitaciones diarias en mm
DESCASC
Precipitaciones de 00:00 a 06:00 en mm
DESCASC
Precipitaciones de 06:00 a 12:00 en mm
DESCASC
Precipitaciones de 12:00 a 18:00 en mm
DESCASC
Precipitaciones de 18:00 a 24:00 en mm
DESCASC
07-08-2020 40.1 (16:30) 22.4 (07:20) 31.2 15.28 (22:10) 9.17 (22:00) 0 0 0 0 0
06-08-2020 36.7 (17:10) 19.7 (01:50) 28.2 8.33 (04:20) 4.72 (17:20) 0 0 0 0 0
05-08-2020 34.5 (18:20) 10.6 (07:30) 22.6 6.11 (23:00) 3.89 (22:30) 0 0 0 0 0
04-08-2020 30.6 (17:20) 13.3 (06:50) 22 10.83 (03:00) 6.67 (02:50) 0 0 0 0 0
03-08-2020 28.6 (16:00) 15.7 (07:20) 22.2 15.28 (18:20) 10.83 (17:40) 0 0 0 0 0
02-08-2020 30.1 (13:50) 17.3 (07:20) 23.7 13.89 (18:20) 8.89 (18:20) 0 0 0 0 0
01-08-2020 35.6 (15:50) 19.9 (00:00) 27.7 10.28 (19:20) 7.22 (19:20) 0 0 0 0 0
31-07-2020 40 (17:40) 22.5 (07:00) 31.3 10.28 (02:00) 5 (02:00) 0 0 0 0 0
30-07-2020 38 (17:20) 23.5 (00:00) 30.8 18.06 (22:10) 9.17 (22:10) 0 0 0 0 0
29-07-2020 35.6 (16:20) 17.9 (00:00) 26.7 10 (09:10) 5.28 (20:10) 2.8 0 2.8 0 0
28-07-2020 37 (17:20) 20.7 (08:00) 28.9 13.61 (01:30) 8.33 (01:40) 0.2 0 0.2 0 0
27-07-2020 38.3 (16:40) 22.1 (00:00) 30.2 12.22 (03:20) 6.67 (03:00) 0 0 0 0 0
26-07-2020 36.4 (17:50) 17 (00:00) 26.7 8.06 (20:20) 3.89 (20:40) 0 0 0 0 0
25-07-2020 35.6 (18:30) 13.7 (06:20) 24.6 7.78 (19:10) 4.44 (19:50) 0 0 0 0 0
24-07-2020 33.3 (16:20) 15.8 (00:00) 24.5 8.61 (20:30) 5.28 (20:30) 0.2 0.2 0 0 0
23-07-2020 36.5 (17:00) 15.9 (00:00) 26.2 6.94 (21:10) 4.72 (21:10) 0 0 0 0 0
22-07-2020 35.5 (17:50) 16.4 (06:30) 25.9 10.28 (17:10) 5.28 (12:20) 0 0 0 0 0
21-07-2020 35.4 (16:30) 17.3 (00:00) 26.4 11.39 (00:40) 6.11 (00:10) 0.4 0 0 0 0.4
20-07-2020 33.7 (16:40) 19.1 (07:10) 26.4 12.5 (20:30) 7.78 (20:20) 0 0 0 0 0
19-07-2020 36.6 (16:10) 18.8 (00:00) 27.7 14.72 (14:30) 5.83 (20:20) 0 0 0 0 0
18-07-2020 33.6 (18:10) 11.7 (00:00) 22.6 6.67 (12:20) 3.06 (14:10) 0 0 0 0 0
17-07-2020 30.2 (17:10) 12.5 (00:00) 21.4 10.83 (18:20) 5 (17:30) 0 0 0 0 0
16-07-2020 30.7 (17:50) 12.1 (00:00) 21.4 8.33 (19:50) 5.56 (19:50) 0 0 0 0 0
15-07-2020 27.7 (15:30) 11.3 (05:10) 19.5 13.33 (16:50) 8.33 (16:00) 0 0 0 0 0
14-07-2020 29.9 (16:00) 12.2 (00:00) 21 7.5 (16:50) 5 (20:10) 0 0 0 0 0
13-07-2020 32.3 (16:50) 15.3 (06:40) 23.8 10.28 (17:20) 6.11 (19:10) 0 0 0 0 0

Gráficas

Temp. máximas Temp. mínimas Temp. medias Precipitaciones Rachas de viento máximas Velocidades máximas media en intervalos de 10 minutos

Datos horarios

Fecha y hora oficial Temperatura (ºC) Velocidad del viento (km/h) Dirección del viento Racha (km/h) Dirección de racha Precipitación (mm) Presión (hPa) Tendencia (hPa) Humedad (%)
2020-08-11 23:00:00 26.9 21 Sudoeste 38 Sudoeste 0 -- -- 44
2020-08-11 22:00:00 27.6 22 Sudoeste 45 Sur 0 -- -- 44
2020-08-11 21:00:00 28.3 19 Sur 33 Sudoeste 0 -- -- 35
2020-08-11 20:00:00 28 8 Sudeste 13 Sudeste 0 -- -- 47
2020-08-11 19:00:00 27.8 2 Sudoeste 16 Sur 0 -- -- 47
2020-08-11 18:00:00 28 13 Sudeste 45 Sudeste 0 -- -- 46
2020-08-11 17:00:00 28.2 24 Sudeste 44 Sudeste 0 -- -- 47
2020-08-11 16:00:00 29 27 Sur 43 Sur 0 -- -- 44
2020-08-11 15:00:00 29 15 Sur 28 Sur 0 -- -- 44
2020-08-11 14:00:00 28.7 18 Sudeste 29 Sudeste 0 -- -- 44
2020-08-11 13:00:00 29.4 16 Sudeste 26 Sudeste 0 -- -- 41
2020-08-11 12:00:00 30.4 14 Sudeste 34 Sur 0 -- -- 39
2020-08-11 11:00:00 28 19 Sur 41 Sur 0 -- -- 43
2020-08-11 10:00:00 25.6 19 Sur 37 Sudeste 0 -- -- 52
2020-08-11 09:00:00 23.3 19 Sudeste 36 Sudeste 0 -- -- 65
2020-08-11 08:00:00 22.6 11 Sur 18 Sudeste 0 -- -- 66
2020-08-11 07:00:00 22.6 7 Sudeste 31 Sudoeste 0 -- -- 67
2020-08-11 06:00:00 23.7 11 Sudeste 30 Sur 0 -- -- 60
2020-08-11 05:00:00 23.7 13 Sur 28 Sudeste 0 -- -- 62
2020-08-11 04:00:00 24.7 15 Sur 24 Sur 0 -- -- 59
2020-08-11 03:00:00 24.5 11 Sudeste 31 Sudeste 0 -- -- 67
2020-08-11 02:00:00 24.4 8 Sur 14 Sudeste 0 -- -- 68
2020-08-11 01:00:00 24.3 6 Nordeste 11 Nordeste 0 -- -- 69
2020-08-11 00:00:00 24.9 4 Sudoeste 28 Sudeste 0 -- -- 62
2020-08-10 23:00:00 27.4 17 Sudeste 33 Sur 0 -- -- 48
2020-08-10 22:00:00 27.6 17 Sur 28 Sudeste 0 -- -- 50
2020-08-10 21:00:00 28.7 10 Sudeste 22 Sur 0 -- -- 45
2020-08-10 20:00:00 30.3 15 Sudeste 31 Sudeste 0 -- -- 45
2020-08-10 19:00:00 31.1 22 Sudeste 39 Sudeste 0 -- -- 40
2020-08-10 18:00:00 31.2 24 Sudeste 36 Sudeste 0 -- -- 40
2020-08-10 17:00:00 30.7 17 Sudeste 50 Sudeste 0 -- -- 43
2020-08-10 16:00:00 30.1 24 Sudeste 35 Sudeste 0 -- -- 46
2020-08-10 15:00:00 32.5 18 Sudeste 32 Sudeste 0.2 -- -- 40
2020-08-10 14:00:00 29.2 11 Sudeste 27 Sudeste 0.2 -- -- 50
2020-08-10 13:00:00 32.7 15 Sudeste 27 Sudeste 0 -- -- 37
2020-08-10 12:00:00 31.5 11 Sudeste 27 Sudeste 0 -- -- 39
2020-08-10 11:00:00 29 16 Sur 27 Sur 0 -- -- 45
2020-08-10 10:00:00 27 16 Sudeste 25 Sudeste 0 -- -- 49
2020-08-10 09:00:00 25.9 11 Sur 19 Sur 0 -- -- 49
2020-08-10 08:00:00 24.7 9 Sur 21 Sur 0 -- -- 47
2020-08-10 07:00:00 24.9 8 Sudoeste 19 Sur 0 -- -- 46
2020-08-10 06:00:00 25.1 13 Sudoeste 40 Sur 0 -- -- 45
2020-08-10 05:00:00 25.6 19 Sudeste 37 Sudeste 0 -- -- 46
2020-08-10 04:00:00 25.8 23 Sudeste 38 Sudeste 0 -- -- 45
2020-08-10 03:00:00 26.3 19 Sudeste 36 Sudeste 0 -- -- 44
2020-08-10 02:00:00 26.7 19 Sudeste 38 Sudeste 0 -- -- 43
2020-08-10 01:00:00 27.9 23 Sudeste 44 Sudeste 0 -- -- 40
2020-08-10 00:00:00 27.4 26 Sudeste 50 Sudeste 0 -- -- 42
2020-08-09 23:00:00 27.1 22 Sudeste 45 Sudeste 0 -- -- 43
2020-08-09 22:00:00 27.9 28 Sudeste 56 Sudeste 0 -- -- 40
2020-08-09 21:00:00 31.1 24 Sudeste 42 Sudoeste 0 -- -- 39
2020-08-09 20:00:00 33.2 19 Sur 36 Sur 0 -- -- 29
2020-08-09 19:00:00 34.5 25 Sudoeste 48 Sudoeste 0 -- -- 30
2020-08-09 18:00:00 37.2 23 Sudeste 43 Sudeste 0 -- -- 30
2020-08-09 17:00:00 37.8 23 Sur 39 Sur 0 -- -- 26
2020-08-09 16:00:00 37.8 15 Sudeste 33 Sudeste 0 -- -- 32
2020-08-09 15:00:00 36.7 18 Sudeste 35 Sudeste 0 -- -- 33
2020-08-09 14:00:00 36.7 15 Sudeste 32 Sudeste 0 -- -- 32
2020-08-09 13:00:00 35.5 11 Sudeste 27 Sudeste 0 -- -- 32
2020-08-09 12:00:00 34.1 14 Sudeste 25 Sur 0 -- -- 31
2020-08-09 11:00:00 32.5 14 Sudeste 24 Sudeste 0 -- -- 35
2020-08-09 10:00:00 30.8 2 Oeste 7 Noroeste 0 -- -- 41
2020-08-09 09:00:00 27.5 0 Calma 4 Sudoeste 0 -- -- 50
2020-08-09 08:00:00 21.1 3 Nordeste 6 Norte 0 -- -- 66
2020-08-09 07:00:00 21.4 3 Sur 8 Sur 0 -- -- 64
2020-08-09 06:00:00 23.4 3 Sudoeste 7 Norte 0 -- -- 58
2020-08-09 05:00:00 24.6 3 Noroeste 12 Sudoeste 0 -- -- 53
2020-08-09 04:00:00 25.7 6 Sudoeste 13 Oeste 0 -- -- 52
2020-08-09 03:00:00 26.2 4 Sudeste 23 Oeste 0 -- -- 49
2020-08-09 02:00:00 27 6 Sudoeste 12 Oeste 0 -- -- 49
2020-08-09 01:00:00 28.6 9 Este 21 Este 0 -- -- 49
2020-08-09 00:00:00 30.3 13 Sudeste 22 Sudeste 0 -- -- 39
2020-08-08 23:00:00 31.1 6 Sudoeste 21 Este 0 -- -- 32
2020-08-08 22:00:00 31.7 16 Este 31 Norte 0 -- -- 34
2020-08-08 21:00:00 30.7 19 Noroeste 39 Oeste 0 -- -- 39
2020-08-08 20:00:00 34.8 16 Sudoeste 35 Sudoeste 0 -- -- 30
2020-08-08 19:00:00 37.3 9 Sudoeste 26 Sudoeste 0 -- -- 26
2020-08-08 18:00:00 39.2 11 Sur 29 Sudeste 0 -- -- 27
2020-08-08 17:00:00 39.1 9 Sudeste 21 Sudeste 0 -- -- 28
2020-08-08 16:00:00 39 9 Sur 25 Sudoeste 0 -- -- 28
2020-08-08 15:00:00 38.8 5 Sudeste 19 Sur 0 -- -- 27
2020-08-08 14:00:00 37.5 9 Sur 22 Oeste 0 -- -- 29
2020-08-08 13:00:00 36.2 9 Noroeste 17 Oeste 0 -- -- 31
2020-08-08 12:00:00 34.4 7 Oeste 17 Oeste 0 -- -- 34
2020-08-08 11:00:00 33.5 10 Oeste 20 Sur 0 -- -- 35
2020-08-08 10:00:00 31.3 6 Sudeste 13 Sudeste 0 -- -- 39
2020-08-08 09:00:00 26.9 0 Calma 3 Este 0 -- -- 50
2020-08-08 08:00:00 20.7 0 Calma 4 Oeste 0 -- -- 66
2020-08-08 07:00:00 20.5 4 Sudoeste 9 Este 0 -- -- 64
2020-08-08 06:00:00 22.5 2 Sudeste 8 Este 0 -- -- 58
2020-08-08 05:00:00 22.6 2 Sur 12 Oeste 0 -- -- 58
2020-08-08 04:00:00 24.7 10 Oeste 23 Noroeste 0 -- -- 52
2020-08-08 03:00:00 26.1 6 Oeste 22 Sudeste 0 -- -- 43
2020-08-08 02:00:00 25.8 5 Sudoeste 18 Este 0 -- -- 47
2020-08-08 01:00:00 27 12 Este 30 Este 0 -- -- 48
2020-08-08 00:00:00 28 18 Nordeste 36 Nordeste 0 -- -- 45
2020-08-07 23:00:00 30.8 18 Este 55 Nordeste 0 -- -- 35
2020-08-07 22:00:00 31.7 33 Norte 54 Nordeste 0 -- -- 34
2020-08-07 21:00:00 35.4 19 Sur 35 Oeste 0 -- -- 28
2020-08-07 20:00:00 35.8 15 Sudoeste 33 Sudoeste 0 -- -- 28
2020-08-07 19:00:00 37.4 10 Sudoeste 20 Sur 0 -- -- 24
2020-08-07 18:00:00 39 13 Sudeste 22 Sur 0 -- -- 24
2020-08-07 17:00:00 39.2 15 Sur 24 Sur 0 -- -- 25
2020-08-07 16:00:00 39.7 4 Sudoeste 21 Oeste 0 -- -- 23
2020-08-07 15:00:00 38.9 5 Oeste 13 Oeste 0 -- -- 24
2020-08-07 14:00:00 37.5 5 Sudoeste 12 Oeste 0 -- -- 27
2020-08-07 13:00:00 36.2 6 Sudoeste 18 Oeste 0 -- -- 26
2020-08-07 12:00:00 33.2 2 Nordeste 10 Norte 0 -- -- 34
2020-08-07 11:00:00 29.4 5 Nordeste 14 Nordeste 0 -- -- 41
2020-08-07 10:00:00 27.3 5 Norte 14 Nordeste 0 -- -- 48
2020-08-07 09:00:00 26.9 4 Noroeste 19 Sudoeste 0 -- -- 49
2020-08-07 08:00:00 24.3 8 Oeste 19 Noroeste 0 -- -- 49
2020-08-07 07:00:00 22.9 6 Sudoeste 21 Sudoeste 0 -- -- 57
2020-08-07 06:00:00 23.9 17 Sur 36 Sudeste 0 -- -- 54
2020-08-07 05:00:00 23.3 9 Oeste 21 Sur 0 -- -- 60
2020-08-07 04:00:00 23.8 9 Sudoeste 43 Sudeste 0 -- -- 59
2020-08-07 03:00:00 24 28 Sudeste 45 Sudeste 0 -- -- 61
2020-08-07 02:00:00 25.3 20 Sudeste 30 Sudeste 0 -- -- 59
2020-08-07 01:00:00 27.5 14 Sudeste 23 Sudeste 0 -- -- 46
2020-08-07 00:00:00 28.9 9 Sur 19 Sur 0 -- -- 41
2020-08-06 23:00:00 28.3 4 Sur 15 Oeste 0 -- -- 48
2020-08-06 22:00:00 30.6 9 Sur 28 Sur 0 -- -- 40
2020-08-06 21:00:00 32.4 16 Sur 23 Sudeste 0 -- -- 36
2020-08-06 20:00:00 35 15 Sudeste 25 Sudeste 0 -- -- 28
2020-08-06 19:00:00 36 14 Sudeste 30 Sur 0 -- -- 28
2020-08-06 18:00:00 36.3 15 Sur 27 Sudeste 0 -- -- 30
2020-08-06 17:00:00 36.4 10 Sudeste 25 Sudeste 0 -- -- 32
2020-08-06 16:00:00 36.1 10 Este 28 Sur 0 -- -- 33
2020-08-06 15:00:00 35.8 7 Sur 18 Sur 0 -- -- 34
2020-08-06 14:00:00 34.4 5 Sudeste 18 Sur 0 -- -- 37
2020-08-06 13:00:00 32.9 6 Nordeste 19 Sudeste 0 -- -- 40
2020-08-06 12:00:00 30.4 10 Sudeste 23 Sur 0 -- -- 48
2020-08-06 11:00:00 28.2 4 Sudoeste 24 Sur 0 -- -- 56
2020-08-06 10:00:00 25.8 9 Sudeste 20 Sur 0 -- -- 65
2020-08-06 09:00:00 23.6 9 Sur 19 Sur 0 -- -- 73
2020-08-06 08:00:00 20.9 6 Sudoeste 22 Sur 0 -- -- 84
2020-08-06 07:00:00 20.7 13 Sur 26 Sur 0 -- -- 84
2020-08-06 06:00:00 21.1 9 Sudeste 25 Sur 0 -- -- 83
2020-08-06 05:00:00 21.3 6 Sur 30 Sur 0 -- -- 83
2020-08-06 04:00:00 21.6 11 Sur 25 Sur 0 -- -- 80
2020-08-06 03:00:00 20.6 6 Noroeste 10 Oeste 0 -- -- 75
2020-08-06 02:00:00 20 4 Este 13 Sur 0 -- -- 62
2020-08-06 01:00:00 23.2 3 Sudoeste 14 Sudoeste 0 -- -- 59
2020-08-06 00:00:00 23.7 6 Sudoeste 18 Sur 0 -- -- 43
2020-08-05 23:00:00 27.5 13 Sur 22 Sur 0 -- -- 34
2020-08-05 22:00:00 28.2 13 Sur 19 Sur 0 -- -- 31
2020-08-05 21:00:00 30.7 12 Sur 18 Sur 0 -- -- 29
2020-08-05 20:00:00 33.1 6 Norte 13 Norte 0 -- -- 21
2020-08-05 19:00:00 33.9 9 Norte 14 Norte 0 -- -- 20
2020-08-05 18:00:00 34.1 9 Nordeste 14 Nordeste 0 -- -- 20
2020-08-05 17:00:00 33.4 6 Oeste 13 Oeste 0 -- -- 19
2020-08-05 16:00:00 32.8 6 Este 14 Nordeste 0 -- -- 22
2020-08-05 15:00:00 31.6 8 Oeste 14 Norte 0 -- -- 27
2020-08-05 14:00:00 30.7 7 Oeste 15 Noroeste 0 -- -- 31
2020-08-05 13:00:00 28.6 5 Norte 16 Noroeste 0 -- -- 38
2020-08-05 12:00:00 26.2 6 Noroeste 13 Noroeste 0 -- -- 37
2020-08-05 11:00:00 23.7 3 Sudeste 8 Norte 0 -- -- 48
2020-08-05 10:00:00 21 2 Nordeste 4 Sudoeste 0 -- -- 56
2020-08-05 09:00:00 18 2 Sudoeste 5 Sudoeste 0 -- -- 69
2020-08-05 08:00:00 11.3 0 Calma 6 Sur 0 -- -- 88
2020-08-05 07:00:00 11.5 4 Sudoeste 10 Sudoeste 0 -- -- 87
2020-08-05 06:00:00 11.3 4 Sudoeste 8 Sudoeste 0 -- -- 87
2020-08-05 05:00:00 12.9 2 Sudoeste 8 Sudoeste 0 -- -- 80
2020-08-05 04:00:00 14.7 4 Sudoeste 10 Sudoeste 0 -- -- 80
2020-08-05 03:00:00 15.5 7 Sudoeste 12 Sur 0 -- -- 76
2020-08-05 02:00:00 16.6 9 Sur 15 Sur 0 -- -- 70
2020-08-05 01:00:00 16.6 7 Oeste 17 Norte 0 -- -- 65
2020-08-05 00:00:00 18.3 10 Noroeste 17 Noroeste 0 -- -- 60
2020-08-04 23:00:00 19.1 7 Noroeste 18 Norte 0 -- -- 57
2020-08-04 22:00:00 21.2 8 Noroeste 21 Noroeste 0 -- -- 48
2020-08-04 21:00:00 24.7 11 Noroeste 26 Norte 0 -- -- 39
2020-08-04 20:00:00 27.8 16 Norte 34 Noroeste 0 -- -- 30
2020-08-04 19:00:00 29.5 15 Norte 29 Norte 0 -- -- 26
2020-08-04 18:00:00 30.1 17 Norte 32 Noroeste 0 -- -- 27
2020-08-04 17:00:00 30.4 14 Norte 38 Noroeste 0 -- -- 29
2020-08-04 16:00:00 29.9 14 Noroeste 35 Norte 0 -- -- 33
2020-08-04 15:00:00 29 8 Oeste 26 Noroeste 0 -- -- 35
2020-08-04 14:00:00 28.2 8 Noroeste 22 Norte 0 -- -- 38
2020-08-04 13:00:00 26.5 9 Noroeste 23 Noroeste 0 -- -- 42
2020-08-04 12:00:00 24.9 10 Norte 23 Norte 0 -- -- 46
2020-08-04 11:00:00 22.6 14 Nordeste 27 Norte 0 -- -- 50
2020-08-04 10:00:00 20.4 17 Norte 25 Norte 0 -- -- 59
2020-08-04 09:00:00 18.6 6 Norte 12 Norte 0 -- -- 67
2020-08-04 08:00:00 14.5 3 Sudoeste 5 Oeste 0 -- -- 82
2020-08-04 07:00:00 13.3 2 Sudoeste 8 Sur 0 -- -- 82
2020-08-04 06:00:00 13.8 2 Oeste 12 Noroeste 0 -- -- 80
2020-08-04 05:00:00 14.8 3 Norte 23 Norte 0 -- -- 78
2020-08-04 04:00:00 16 20 Norte 35 Norte 0 -- -- 72
2020-08-04 03:00:00 16.8 23 Norte 39 Norte 0 -- -- 69
2020-08-04 02:00:00 17 15 Norte 35 Norte 0 -- -- 67
2020-08-04 01:00:00 16.9 12 Noroeste 22 Norte 0 -- -- 67
2020-08-04 00:00:00 18.3 11 Norte 18 Norte 0 -- -- 62
2020-08-03 23:00:00 18.5 5 Noroeste 27 Norte 0 -- -- 61
2020-08-03 22:00:00 20.4 12 Nordeste 42 Norte 0 -- -- 54
2020-08-03 21:00:00 22.2 28 Norte 53 Norte 0 -- -- 48
2020-08-03 20:00:00 25.1 26 Norte 47 Norte 0 -- -- 41
2020-08-03 19:00:00 26.6 28 Norte 55 Norte 0 -- -- 38
2020-08-03 18:00:00 27.3 31 Norte 50 Norte 0 -- -- 37
2020-08-03 17:00:00 27.7 32 Norte 50 Norte 0 -- -- 36
2020-08-03 16:00:00 28.6 28 Norte 48 Norte 0 -- -- 35
2020-08-03 15:00:00 28.4 27 Norte 45 Norte 0 -- -- 33
2020-08-03 14:00:00 27.6 21 Norte 44 Nordeste 0 -- -- 34
2020-08-03 13:00:00 25.6 29 Norte 48 Norte 0 -- -- 38
2020-08-03 12:00:00 24.5 19 Norte 39 Norte 0 -- -- 43
2020-08-03 11:00:00 22.4 19 Norte 36 Norte 0 -- -- 48
2020-08-03 10:00:00 20.5 28 Norte 43 Nordeste 0 -- -- 53
2020-08-03 09:00:00 18.7 22 Norte 36 Norte 0 -- -- 61
2020-08-03 08:00:00 16.9 14 Norte 26 Noroeste 0 -- -- 66
2020-08-03 07:00:00 16 16 Norte 33 Norte 0 -- -- 70
2020-08-03 06:00:00 17 17 Norte 35 Norte 0 -- -- 66
2020-08-03 05:00:00 17.3 12 Norte 25 Norte 0 -- -- 65
2020-08-03 04:00:00 17.4 13 Norte 28 Norte 0 -- -- 67
2020-08-03 03:00:00 17.8 17 Norte 31 Noroeste 0 -- -- 66
2020-08-03 02:00:00 18.2 17 Norte 26 Norte 0 -- -- 62
2020-08-03 01:00:00 18.2 12 Norte 28 Norte 0 -- -- 62
2020-08-03 00:00:00 18.6 18 Norte 31 Norte 0 -- -- 62
2020-08-02 23:00:00 19.4 15 Noroeste 32 Noroeste 0 -- -- 59
2020-08-02 22:00:00 20.8 15 Norte 29 Norte 0 -- -- 54
2020-08-02 21:00:00 22 14 Norte 35 Noroeste 0 -- -- 50
2020-08-02 20:00:00 23.4 22 Norte 39 Norte 0 -- -- 47
2020-08-02 19:00:00 24.6 28 Norte 50 Norte 0 -- -- 45
2020-08-02 18:00:00 27.3 27 Norte 45 Norte 0 -- -- 43
2020-08-02 17:00:00 27.5 28 Norte 46 Nordeste 0 -- -- 42
2020-08-02 16:00:00 29.7 21 Norte 40 Norte 0 -- -- 40
2020-08-02 15:00:00 29 22 Norte 39 Norte 0 -- -- 42
2020-08-02 14:00:00 30 16 Norte 32 Noroeste 0 -- -- 42
2020-08-02 13:00:00 28.8 13 Norte 27 Norte 0 -- -- 45
2020-08-02 12:00:00 27 14 Norte 29 Norte 0 -- -- 49
2020-08-02 11:00:00 25.1 9 Norte 23 Norte 0 -- -- 54
2020-08-02 10:00:00 23 8 Noroeste 22 Norte 0 -- -- 61
2020-08-02 09:00:00 20.8 14 Norte 26 Norte 0 -- -- 68
2020-08-02 08:00:00 18.2 8 Noroeste 17 Noroeste 0 -- -- 80
2020-08-02 07:00:00 17.6 8 Noroeste 25 Norte 0 -- -- 82
2020-08-02 06:00:00 18.4 15 Norte 28 Norte 0 -- -- 80
2020-08-02 05:00:00 17.6 6 Noroeste 19 Noroeste 0 -- -- 83
2020-08-02 04:00:00 18.4 9 Norte 19 Noroeste 0 -- -- 80
2020-08-02 03:00:00 18.6 8 Norte 15 Norte 0 -- -- 80
2020-08-02 02:00:00 19.8 9 Norte 21 Norte 0 -- -- 75
2020-08-02 01:00:00 20.3 4 Norte 23 Norte 0 -- -- 70
2020-08-02 00:00:00 21.1 7 Norte 20 Norte 0 -- -- 66
2020-08-01 23:00:00 22.6 13 Norte 35 Norte 0 -- -- 60
2020-08-01 22:00:00 24.3 15 Norte 30 Norte 0 -- -- 53
2020-08-01 21:00:00 26.4 15 Norte 30 Norte 0 -- -- 51
2020-08-01 20:00:00 29.5 16 Norte 37 Norte 0 -- -- 44
2020-08-01 19:00:00 32.7 21 Norte 30 Nordeste 0 -- -- 38
2020-08-01 18:00:00 34.9 14 Norte 36 Norte 0 -- -- 35
2020-08-01 17:00:00 34.8 17 Norte 31 Norte 0 -- -- 36
2020-08-01 16:00:00 35.1 15 Norte 30 Norte 0 -- -- 36
2020-08-01 15:00:00 34.3 14 Norte 26 Norte 0 -- -- 36
2020-08-01 14:00:00 34.2 11 Noroeste 23 Norte 0 -- -- 38
2020-08-01 13:00:00 32.8 4 Norte 15 Norte 0 -- -- 41
2020-08-01 12:00:00 30.1 7 Norte 16 Noroeste 0 -- -- 48
2020-08-01 11:00:00 28.5 9 Noroeste 15 Noroeste 0 -- -- 53
2020-08-01 10:00:00 26 6 Norte 14 Nordeste 0 -- -- 61
2020-08-01 09:00:00 23.8 10 Norte 15 Norte 0 -- -- 70
2020-08-01 08:00:00 21 2 Sudeste 5 Sudoeste 0 -- -- 78
2020-08-01 07:00:00 19.9 3 Sudoeste 8 Sudoeste 0 -- -- 77
2020-08-01 06:00:00 20.7 4 Sudoeste 9 Sudoeste 0 -- -- 68
2020-08-01 05:00:00 22.4 3 Sur 16 Oeste 0 -- -- 62
2020-08-01 04:00:00 26.1 5 Sur 22 Sudeste 0 -- -- 55
2020-08-01 03:00:00 27.3 7 Sudeste 25 Sudeste 0 -- -- 51
2020-08-01 02:00:00 25.3 3 Nordeste 5 Norte 0 -- -- 51
2020-08-01 01:00:00 26 2 Oeste 9 Este 0 -- -- 48
2020-08-01 00:00:00 28.2 4 Nordeste 9 Nordeste 0 -- -- 42
2020-07-31 23:00:00 29.3 3 Oeste 13 Sudeste 0 -- -- 38
2020-07-31 22:00:00 33.2 4 Sudeste 21 Sudeste 0 -- -- 30
2020-07-31 21:00:00 35.6 12 Sudeste 30 Sudeste 0 -- -- 27
2020-07-31 20:00:00 37.7 13 Sudeste 25 Sudeste 0 -- -- 24
2020-07-31 19:00:00 39.3 3 Sudoeste 18 Oeste 0 -- -- 21
2020-07-31 18:00:00 39.7 4 Este 15 Norte 0 -- -- 21
2020-07-31 17:00:00 39.1 9 Norte 22 Noroeste 0 -- -- 21
2020-07-31 16:00:00 39.5 4 Norte 26 Oeste 0 -- -- 21
2020-07-31 15:00:00 39.2 8 Sudoeste 22 Oeste 0 -- -- 23
2020-07-31 14:00:00 37.8 7 Norte 20 Oeste 0 -- -- 24
2020-07-31 13:00:00 37.2 5 Sur 12 Sudoeste 0 -- -- 26
2020-07-31 12:00:00 35.1 6 Oeste 9 Oeste 0 -- -- 30
2020-07-31 11:00:00 32.5 3 Noroeste 10 Oeste 0 -- -- 34
2020-07-31 10:00:00 30.7 3 Noroeste 11 Sur 0 -- -- 38
2020-07-31 09:00:00 28 7 Sur 19 Sur 0 -- -- 41
2020-07-31 08:00:00 24.3 2 Nordeste 24 Sur 0 -- -- 48
2020-07-31 07:00:00 22.5 4 Oeste 28 Sudeste 0 -- -- 52
2020-07-31 06:00:00 26.4 16 Sur 36 Sudeste 0 -- -- 41
2020-07-31 05:00:00 25.2 5 Sudeste 24 Sudeste 0 -- -- 47
2020-07-31 04:00:00 23.5 8 Sudoeste 15 Sudoeste 0 -- -- 55
2020-07-31 03:00:00 25.6 8 Sudoeste 24 Sudeste 0 -- -- 49
2020-07-31 02:00:00 27.5 18 Sudeste 37 Sudeste 0 -- -- 44
2020-07-31 01:00:00 27.3 10 Sudeste 28 Sudeste 0 -- -- 45
2020-07-31 00:00:00 26.2 3 Nordeste 12 Sur 0 -- -- 50
2020-07-30 23:00:00 27.5 8 Sudeste 65 Noroeste 0 -- -- 46
2020-07-30 22:00:00 28.8 22 Noroeste 45 Noroeste 0 -- -- 44
2020-07-30 21:00:00 30.8 21 Nordeste 55 Nordeste 0 -- -- 35
2020-07-30 20:00:00 35 20 Oeste 47 Oeste 0 -- -- 19
2020-07-30 19:00:00 35.4 24 Sudoeste 46 Sudoeste 0 -- -- 21
2020-07-30 18:00:00 36.6 22 Sudoeste 39 Sudoeste 0 -- -- 24
2020-07-30 17:00:00 37 22 Sur 40 Sudeste 0 -- -- 27
2020-07-30 16:00:00 36.7 27 Sudeste 43 Sur 0 -- -- 26
2020-07-30 15:00:00 36.5 22 Sudeste 37 Sudeste 0 -- -- 28
2020-07-30 14:00:00 35.6 17 Sudeste 32 Sudeste 0 -- -- 30
2020-07-30 13:00:00 34.9 14 Sudeste 24 Sudeste 0 -- -- 31
2020-07-30 12:00:00 33.7 9 Sudeste 27 Sudeste 0 -- -- 31
2020-07-30 11:00:00 31.1 18 Sudeste 27 Sudeste 0 -- -- 36
2020-07-30 10:00:00 28.3 6 Noroeste 12 Norte 0 -- -- 45
2020-07-30 09:00:00 25.2 8 Nordeste 14 Nordeste 0 -- -- 56
2020-07-30 08:00:00 25.1 6 Sudoeste 25 Sur 0 -- -- 48
2020-07-30 07:00:00 25.6 8 Sudoeste 44 Sur 0 -- -- 45
2020-07-30 06:00:00 24.7 9 Sur 27 Sur 0 -- -- 52
2020-07-30 05:00:00 24.9 11 Sur 19 Sur 0 -- -- 52
2020-07-30 04:00:00 24.3 10 Sur 32 Sur 0 -- -- 57
2020-07-30 03:00:00 25.2 13 Sudeste 30 Sudeste 0 -- -- 54
2020-07-30 02:00:00 25.5 8 Sur 27 Sudeste 0 -- -- 52
2020-07-30 01:00:00 26.1 3 Este 17 Sur 0 -- -- 50
2020-07-30 00:00:00 28.2 6 Sudeste 13 Sudeste 0 -- -- 44
2020-07-29 23:00:00 28.5 6 Sur 15 Sudeste 0 -- -- 45
2020-07-29 22:00:00 30 12 Sudeste 25 Sudeste 0 -- -- 41
2020-07-29 21:00:00 32 15 Sudeste 29 Sudeste 0 -- -- 36
2020-07-29 20:00:00 33.9 18 Sudeste 32 Sudeste 0 -- -- 33
2020-07-29 19:00:00 34.4 17 Sudeste 34 Sudeste 0 -- -- 35
2020-07-29 18:00:00 35 16 Sudeste 30 Sudeste 0 -- -- 35
2020-07-29 17:00:00 35.1 17 Sudeste 28 Sudeste 0 -- -- 33
2020-07-29 16:00:00 35 11 Sur 23 Sur 0 -- -- 30
2020-07-29 15:00:00 34.4 13 Sudoeste 27 Sudoeste 0 -- -- 32
2020-07-29 14:00:00 32.3 5 Norte 14 Nordeste 0 -- -- 46
2020-07-29 13:00:00 29.7 4 Nordeste 11 Este 0 -- -- 52
2020-07-29 12:00:00 26.8 4 Nordeste 10 Este 0.2 -- -- 61
2020-07-29 11:00:00 23.9 5 Este 10 Este 0 -- -- 74
2020-07-29 10:00:00 20.2 3 Nordeste 36 Noroeste 2.6 -- -- 88
2020-07-29 09:00:00 20.7 4 Noroeste 12 Noroeste 0 -- -- 83
2020-07-29 08:00:00 19.5 3 Norte 6 Nordeste 0 -- -- 80
2020-07-29 07:00:00 17.9 3 Nordeste 10 Norte 0 -- -- 83
2020-07-29 06:00:00 18.5 0 Calma 6 Nordeste 0 -- -- 84
2020-07-29 05:00:00 19.4 2 Sudeste 6 Nordeste 0 -- -- 80
2020-07-29 04:00:00 20.1 0 Calma 11 Norte 0 -- -- 79
2020-07-29 03:00:00 21.9 9 Norte 17 Norte 0 -- -- 73
2020-07-29 02:00:00 23.3 7 Norte 15 Este 0 -- -- 68
2020-07-29 01:00:00 25.8 7 Este 17 Este 0 -- -- 59
2020-07-29 00:00:00 27.6 12 Este 18 Este 0 -- -- 53
2020-07-28 23:00:00 29.8 5 Este 19 Nordeste 0 -- -- 41
2020-07-28 22:00:00 30.6 14 Nordeste 32 Sudeste 0 -- -- 42
2020-07-28 21:00:00 33.2 12 Sudeste 26 Sudeste 0 -- -- 36
2020-07-28 20:00:00 34 13 Sudeste 32 Sudeste 0 -- -- 36
2020-07-28 19:00:00 35.1 19 Sudeste 29 Sudeste 0 -- -- 36
2020-07-28 18:00:00 35.7 13 Sur 28 Sudeste 0 -- -- 36
2020-07-28 17:00:00 36.8 12 Sudeste 26 Sudeste 0 -- -- 36
2020-07-28 16:00:00 36.6 5 Sur 17 Nordeste 0 -- -- 35
2020-07-28 15:00:00 35.3 9 Oeste 20 Noroeste 0 -- -- 40
2020-07-28 14:00:00 33.2 11 Noroeste 30 Noroeste 0 -- -- 42
2020-07-28 13:00:00 32.5 10 Noroeste 21 Noroeste 0 -- -- 42
2020-07-28 12:00:00 31.5 7 Noroeste 11 Noroeste 0 -- -- 43
2020-07-28 11:00:00 29.2 4 Norte 10 Noroeste 0 -- -- 49
2020-07-28 10:00:00 26.7 2 Oeste 10 Oeste 0 -- -- 55
2020-07-28 09:00:00 23.8 4 Norte 8 Oeste 0 -- -- 69
2020-07-28 08:00:00 20.7 8 Oeste 18 Noroeste 0.2 -- -- 82
2020-07-28 07:00:00 21.8 5 Sudoeste 13 Oeste 0 -- -- 74
2020-07-28 06:00:00 22.4 2 Oeste 11 Sur 0 -- -- 73
2020-07-28 05:00:00 23.5 7 Oeste 15 Oeste 0 -- -- 72
2020-07-28 04:00:00 25.2 7 Sudoeste 13 Oeste 0 -- -- 64
2020-07-28 03:00:00 26.9 7 Sudoeste 33 Sur 0 -- -- 57
2020-07-28 02:00:00 29.1 24 Sur 49 Sur 0 -- -- 44
2020-07-28 01:00:00 29.5 27 Sur 46 Sudeste 0 -- -- 46
2020-07-28 00:00:00 29.9 20 Sudeste 32 Sudeste 0 -- -- 50
2020-07-27 23:00:00 30.3 10 Sudeste 29 Sudeste 0 -- -- 51
2020-07-27 22:00:00 32.3 8 Sudeste 27 Sudeste 0 -- -- 43
2020-07-27 21:00:00 35 11 Sudeste 31 Sudeste 0 -- -- 33
2020-07-27 20:00:00 36 19 Sur 39 Sur 0 -- -- 34
2020-07-27 19:00:00 37.1 20 Sudeste 32 Sur 0 -- -- 32
2020-07-27 18:00:00 37.7 18 Sudeste 30 Sur 0 -- -- 31
2020-07-27 17:00:00 38.1 16 Sudeste 28 Sudeste 0 -- -- 31
2020-07-27 16:00:00 37.9 10 Sudeste 26 Sur 0 -- -- 33
2020-07-27 15:00:00 37.2 9 Sudeste 21 Sudeste 0 -- -- 35
2020-07-27 14:00:00 35.6 8 Sudeste 25 Sudeste 0 -- -- 39
2020-07-27 13:00:00 32.7 15 Sudeste 27 Sudeste 0 -- -- 43
2020-07-27 12:00:00 30.7 16 Sudeste 30 Sudeste 0 -- -- 48
2020-07-27 09:00:00 25.7 14 Sur 24 Sur 0 -- -- 59
2020-07-27 08:00:00 23.6 10 Sur 22 Sur 0 -- -- 69
2020-07-27 07:00:00 22.4 7 Sur 21 Sur 0 -- -- 69
2020-07-27 06:00:00 22.2 11 Sur 28 Sur 0 -- -- 73
2020-07-27 05:00:00 23 13 Sur 37 Sudeste 0 -- -- 67
2020-07-27 04:00:00 23.8 24 Sur 44 Sudeste 0 -- -- 64
2020-07-27 03:00:00 24.3 24 Sudeste 39 Sudeste 0 -- -- 63
2020-07-27 02:00:00 24.7 17 Sur 35 Sudeste 0 -- -- 72
2020-07-27 01:00:00 26.9 5 Este 13 Sudoeste 0 -- -- 61
2020-07-27 00:00:00 26.2 6 Oeste 17 Sudoeste 0 -- -- 67
2020-07-26 23:00:00 28.3 6 Sur 17 Sur 0 -- -- 54
2020-07-26 22:00:00 30 8 Sur 18 Sur 0 -- -- 46
2020-07-26 21:00:00 32.5 12 Sur 29 Sudeste 0 -- -- 41
2020-07-26 20:00:00 34.5 11 Sudeste 22 Sur 0 -- -- 36
2020-07-26 19:00:00 35.3 12 Sur 21 Sur 0 -- -- 34
2020-07-26 18:00:00 36.3 9 Nordeste 18 Norte 0 -- -- 27
2020-07-26 17:00:00 36.1 6 Este 16 Norte 0 -- -- 30
2020-07-26 16:00:00 35.1 10 Norte 20 Norte 0 -- -- 33
2020-07-26 15:00:00 34 8 Nordeste 21 Nordeste 0 -- -- 37
2020-07-26 14:00:00 33.1 7 Oeste 19 Nordeste 0 -- -- 39
2020-07-26 13:00:00 31.6 8 Noroeste 18 Norte 0 -- -- 42
2020-07-26 12:00:00 29.8 5 Norte 13 Nordeste 0 -- -- 48
2020-07-26 11:00:00 27.3 6 Norte 13 Noroeste 0 -- -- 51
2020-07-26 10:00:00 24.6 8 Norte 15 Norte 0 -- -- 59
2020-07-26 09:00:00 22 3 Nordeste 6 Nordeste 0 -- -- 68
2020-07-26 08:00:00 18.7 2 Oeste 6 Sur 0 -- -- 80
2020-07-26 07:00:00 17.5 3 Sudoeste 8 Sudoeste 0 -- -- 80
2020-07-26 06:00:00 18.4 2 Sudoeste 7 Sur 0 -- -- 75
2020-07-26 05:00:00 19.7 4 Sudoeste 10 Sudoeste 0 -- -- 72
2020-07-26 04:00:00 20.6 5 Sudoeste 14 Oeste 0 -- -- 66
2020-07-26 03:00:00 21.3 3 Oeste 15 Sudoeste 0 -- -- 67
2020-07-26 02:00:00 22.1 0 Calma 9 Sudoeste 0 -- -- 63
2020-07-26 01:00:00 24.2 2 Sudoeste 10 Sudeste 0 -- -- 58
2020-07-26 00:00:00 23.3 0 Calma 5 Nordeste 0 -- -- 53
2020-07-25 23:00:00 24.3 4 Noroeste 15 Sur 0 -- -- 46
2020-07-25 22:00:00 28.1 7 Sur 21 Sudeste 0 -- -- 38
2020-07-25 21:00:00 31.1 11 Sudeste 26 Sur 0 -- -- 32
2020-07-25 20:00:00 33.1 14 Sudeste 28 Sur 0 -- -- 29
2020-07-25 19:00:00 34.4 11 Sudeste 21 Sur 0 -- -- 28
2020-07-25 18:00:00 35.2 8 Norte 18 Norte 0 -- -- 23
2020-07-25 17:00:00 34.7 6 Oeste 18 Norte 0 -- -- 22
2020-07-25 16:00:00 34 5 Norte 16 Nordeste 0 -- -- 22
2020-07-25 15:00:00 33.2 6 Norte 13 Sudeste 0 -- -- 24
2020-07-25 14:00:00 31.8 6 Sudoeste 14 Oeste 0 -- -- 26
2020-07-25 13:00:00 29.1 6 Noroeste 12 Noroeste 0 -- -- 35
2020-07-25 12:00:00 26.5 4 Noroeste 9 Norte 0 -- -- 42
2020-07-25 11:00:00 24.4 4 Norte 10 Nordeste 0 -- -- 49
2020-07-25 10:00:00 21.6 4 Norte 11 Nordeste 0 -- -- 55
2020-07-25 09:00:00 19.6 3 Norte 7 Noroeste 0 -- -- 64
2020-07-25 08:00:00 15 0 Calma 6 Sudoeste 0 -- -- 81
2020-07-25 07:00:00 13.9 3 Sur 8 Sudoeste 0 -- -- 82
2020-07-25 06:00:00 14.7 0 Calma 7 Sudoeste 0 -- -- 79
2020-07-25 05:00:00 15.1 4 Sudoeste 6 Sudoeste 0 -- -- 79
2020-07-25 04:00:00 16.5 4 Sudeste 8 Sur 0 -- -- 74
2020-07-25 03:00:00 16.6 2 Norte 6 Nordeste 0 -- -- 71
2020-07-25 02:00:00 18.7 2 Nordeste 12 Noroeste 0 -- -- 65
2020-07-25 01:00:00 19.5 6 Noroeste 10 Noroeste 0 -- -- 62
2020-07-25 00:00:00 21.9 4 Norte 13 Norte 0 -- -- 52
2020-07-24 23:00:00 21.8 7 Noroeste 14 Noroeste 0 -- -- 52
2020-07-24 22:00:00 24.6 7 Noroeste 23 Norte 0 -- -- 46
2020-07-24 21:00:00 28.1 14 Norte 31 Norte 0 -- -- 37
2020-07-24 20:00:00 31.1 15 Norte 27 Nordeste 0 -- -- 31
2020-07-24 19:00:00 32.3 13 Norte 22 Norte 0 -- -- 31
2020-07-24 18:00:00 32.9 9 Norte 29 Norte 0 -- -- 32
2020-07-24 17:00:00 33.2 11 Noroeste 23 Nordeste 0 -- -- 31
2020-07-24 16:00:00 32.4 5 Noroeste 21 Noroeste 0 -- -- 33
2020-07-24 15:00:00 31 9 Norte 26 Nordeste 0 -- -- 36
2020-07-24 14:00:00 30.3 11 Norte 24 Norte 0 -- -- 37
2020-07-24 13:00:00 28.6 8 Norte 22 Norte 0 -- -- 40
2020-07-24 12:00:00 26.9 8 Nordeste 18 Norte 0 -- -- 45
2020-07-24 11:00:00 24.1 9 Norte 17 Norte 0 -- -- 49
2020-07-24 10:00:00 22.3 6 Noroeste 14 Noroeste 0 -- -- 54
2020-07-24 09:00:00 20 0 Calma 6 Sur 0 -- -- 63
2020-07-24 08:00:00 17.2 4 Sur 7 Sur 0 -- -- 76
2020-07-24 07:00:00 15.8 2 Sudoeste 11 Oeste 0 -- -- 84
2020-07-24 06:00:00 17.1 4 Sudoeste 9 Sudoeste 0 -- -- 87
2020-07-24 05:00:00 18.1 7 Sur 9 Sur 0 -- -- 84
2020-07-24 04:00:00 18.7 2 Noroeste 17 Nordeste 0 -- -- 79
2020-07-24 03:00:00 20.7 6 Sudeste 13 Oeste 0.2 -- -- 75
2020-07-24 02:00:00 22.5 7 Oeste 24 Noroeste 0 -- -- 68
2020-07-24 01:00:00 23.7 4 Noroeste 8 Noroeste 0 -- -- 56
2020-07-24 00:00:00 24.3 0 Calma 8 Nordeste 0 -- -- 50
2020-07-23 23:00:00 25.9 4 Nordeste 12 Norte 0 -- -- 44
2020-07-23 22:00:00 28.4 7 Norte 25 Norte 0 -- -- 41
2020-07-23 21:00:00 31.7 15 Norte 23 Nordeste 0 -- -- 38
2020-07-23 20:00:00 34.1 11 Nordeste 24 Norte 0 -- -- 27
2020-07-23 19:00:00 35.1 10 Norte 23 Noroeste 0 -- -- 29
2020-07-23 18:00:00 35.8 4 Sur 21 Norte 0 -- -- 26
2020-07-23 17:00:00 36.5 10 Norte 23 Nordeste 0 -- -- 24
2020-07-23 16:00:00 36 10 Norte 19 Noroeste 0 -- -- 25
2020-07-23 15:00:00 35.4 6 Noroeste 19 Norte 0 -- -- 30
2020-07-23 14:00:00 34.2 9 Noroeste 17 Nordeste 0 -- -- 30
2020-07-23 13:00:00 32.7 5 Noroeste 14 Nordeste 0 -- -- 33
2020-07-23 12:00:00 30.3 4 Este 15 Nordeste 0 -- -- 41
2020-07-23 11:00:00 27.9 8 Nordeste 18 Nordeste 0 -- -- 50
2020-07-23 10:00:00 25.7 5 Norte 10 Norte 0 -- -- 50
2020-07-23 09:00:00 23.1 4 Nordeste 8 Nordeste 0 -- -- 54
2020-07-23 08:00:00 18.8 0 Calma 6 Sudoeste 0 -- -- 65
2020-07-23 07:00:00 17.3 2 Sur 7 Sudoeste 0 -- -- 62
2020-07-23 06:00:00 17.4 7 Sudoeste 11 Sudoeste 0 -- -- 61
2020-07-23 05:00:00 17.9 7 Sudoeste 9 Sudoeste 0 -- -- 59
2020-07-23 04:00:00 19.7 5 Sudoeste 12 Sur 0 -- -- 55
2020-07-23 03:00:00 20.6 3 Norte 10 Sur 0 -- -- 55
2020-07-23 02:00:00 20.2 0 Calma 9 Nordeste 0 -- -- 56
2020-07-23 01:00:00 25 6 Sudeste 15 Sudeste 0 -- -- 44
2020-07-23 00:00:00 25.5 4 Sudeste 12 Sudeste 0 -- -- 41
2020-07-22 23:00:00 24.9 4 Norte 13 Sur 0 -- -- 41
2020-07-22 22:00:00 29.6 10 Sudeste 17 Sudeste 0 -- -- 33
2020-07-22 21:00:00 31.4 12 Sudeste 23 Sur 0 -- -- 26
2020-07-22 20:00:00 32.7 10 Sudeste 19 Sudeste 0 -- -- 28
2020-07-22 19:00:00 35 9 Sudoeste 23 Sur 0 -- -- 22
2020-07-22 18:00:00 35.2 12 Sudoeste 37 Este 0 -- -- 22
2020-07-22 17:00:00 32.9 15 Sudeste 32 Sudeste 0 -- -- 33
2020-07-22 16:00:00 34 14 Sudeste 30 Sudeste 0 -- -- 33
2020-07-22 15:00:00 32.7 10 Este 26 Este 0 -- -- 27
2020-07-22 14:00:00 32.5 15 Sudeste 30 Sur 0 -- -- 30
2020-07-22 13:00:00 31.8 17 Sur 33 Sudeste 0 -- -- 31
2020-07-22 12:00:00 29.5 18 Este 32 Este 0 -- -- 42
2020-07-22 11:00:00 26.5 7 Sudoeste 23 Noroeste 0 -- -- 55
2020-07-22 10:00:00 25.6 9 Sudoeste 17 Oeste 0 -- -- 57
2020-07-22 09:00:00 22.4 12 Sur 21 Sudeste 0 -- -- 63
2020-07-22 08:00:00 21.3 6 Este 26 Sur 0 -- -- 70
2020-07-22 07:00:00 17.2 4 Sudeste 10 Sudoeste 0 -- -- 82
2020-07-22 06:00:00 17 0 Calma 6 Norte 0 -- -- 83
2020-07-22 05:00:00 18.6 2 Sudoeste 13 Sudoeste 0 -- -- 76
2020-07-22 04:00:00 21.6 4 Sur 17 Sudeste 0 -- -- 67
2020-07-22 03:00:00 23 4 Sudoeste 17 Oeste 0 -- -- 60
2020-07-22 02:00:00 24.1 14 Sudoeste 28 Sur 0 -- -- 56
2020-07-22 01:00:00 24.4 13 Sudeste 34 Sudeste 0 -- -- 55
2020-07-22 00:00:00 24.4 14 Sudeste 29 Sudeste 0.2 -- -- 60
2020-07-21 23:00:00 25.7 11 Este 17 Este 0.2 -- -- 59
2020-07-21 22:00:00 28.7 4 Sudeste 25 Sudeste 0 -- -- 42
2020-07-21 21:00:00 31.1 14 Sudeste 37 Sur 0 -- -- 35
2020-07-21 20:00:00 32.7 17 Sur 32 Sur 0 -- -- 32
2020-07-21 19:00:00 33.6 14 Sur 39 Sur 0 -- -- 30
2020-07-21 18:00:00 33.5 19 Sur 36 Sudeste 0 -- -- 37
2020-07-21 17:00:00 34.6 19 Sudeste 32 Sudeste 0 -- -- 35
2020-07-21 16:00:00 34.9 18 Sudeste 32 Sudeste 0 -- -- 35
2020-07-21 15:00:00 34.2 19 Sudeste 32 Sudeste 0 -- -- 35
2020-07-21 14:00:00 33.1 14 Sudeste 29 Sudeste 0 -- -- 38
2020-07-21 13:00:00 31.4 14 Sudeste 35 Sur 0 -- -- 38
2020-07-21 12:00:00 29.7 14 Sudeste 30 Sudeste 0 -- -- 43
2020-07-21 11:00:00 27.7 14 Sudeste 23 Sudeste 0 -- -- 48
2020-07-21 10:00:00 25.8 14 Sudeste 24 Sur 0 -- -- 57
2020-07-21 09:00:00 23.8 12 Sudeste 19 Sudeste 0 -- -- 65
2020-07-21 08:00:00 20.3 2 Sudoeste 5 Sudoeste 0 -- -- 75
2020-07-21 07:00:00 17.8 3 Sur 9 Sudoeste 0 -- -- 79
2020-07-21 06:00:00 19.9 6 Sur 24 Sur 0 -- -- 71
2020-07-21 05:00:00 21.5 13 Sur 22 Sur 0 -- -- 68
2020-07-21 04:00:00 21.6 7 Sudoeste 23 Sur 0 -- -- 65
2020-07-21 03:00:00 21.9 8 Sudoeste 18 Sur 0 -- -- 62
2020-07-21 02:00:00 22.2 6 Sudoeste 39 Sudeste 0 -- -- 59
2020-07-21 01:00:00 23.6 20 Sudeste 41 Sudeste 0 -- -- 56
2020-07-21 00:00:00 24.9 21 Sudeste 38 Sudeste 0 -- -- 52
2020-07-20 23:00:00 26.3 23 Sudeste 40 Sudeste 0 -- -- 54
2020-07-20 22:00:00 28 21 Sudeste 43 Sudeste 0 -- -- 51
2020-07-20 21:00:00 29.4 23 Sur 45 Sur 0 -- -- 47
2020-07-20 20:00:00 31.1 24 Sur 44 Sur 0 -- -- 47
2020-07-20 19:00:00 32.7 22 Sudeste 39 Sudeste 0 -- -- 43
2020-07-20 18:00:00 33.3 24 Sur 36 Sur 0 -- -- 43
2020-07-20 17:00:00 33.3 24 Sudeste 37 Sudeste 0 -- -- 43
2020-07-20 16:00:00 33.6 18 Sudeste 38 Sudeste 0 -- -- 43
2020-07-20 15:00:00 33 16 Sur 28 Sur 0 -- -- 44
2020-07-20 14:00:00 32 15 Sudeste 29 Sudeste 0 -- -- 46
2020-07-20 13:00:00 30.9 13 Sudeste 26 Sudeste 0 -- -- 46
2020-07-20 12:00:00 29.2 12 Sudeste 22 Sudeste 0 -- -- 49
2020-07-20 11:00:00 27.7 14 Sudeste 30 Sudeste 0 -- -- 50
2020-07-20 10:00:00 25.7 10 Sudeste 18 Sudeste 0 -- -- 57
2020-07-20 09:00:00 23 9 Este 14 Este 0 -- -- 63
2020-07-20 08:00:00 20.2 0 Calma 8 Norte 0 -- -- 78
2020-07-20 07:00:00 19.5 0 Calma 13 Oeste 0 -- -- 74
2020-07-20 06:00:00 21.3 8 Sudoeste 18 Sudoeste 0 -- -- 67
2020-07-20 05:00:00 21.7 8 Sur 30 Sur 0 -- -- 67
2020-07-20 04:00:00 22.3 20 Sur 41 Sudeste 0 -- -- 68
2020-07-20 03:00:00 21.9 7 Sur 22 Sur 0 -- -- 71
2020-07-20 02:00:00 22.6 6 Sudoeste 34 Sur 0 -- -- 74
2020-07-20 01:00:00 24.3 5 Sudeste 20 Sur 0 -- -- 69
2020-07-20 00:00:00 26.1 5 Sudeste 18 Sur 0 -- -- 50
2020-07-19 23:00:00 27.9 11 Sur 21 Sur 0 -- -- 50
2020-07-19 22:00:00 28.9 8 Sur 22 Sudeste 0 -- -- 51
2020-07-19 21:00:00 31.6 18 Sur 35 Sudeste 0 -- -- 43
2020-07-19 20:00:00 33.6 18 Sudeste 32 Sudeste 0 -- -- 35
2020-07-19 19:00:00 34.7 16 Sudeste 26 Sudeste 0 -- -- 32
2020-07-19 18:00:00 35.3 13 Sur 30 Sudeste 0 -- -- 32
2020-07-19 17:00:00 35.9 6 Sudeste 40 Oeste 0 -- -- 31
2020-07-19 16:00:00 36.5 5 Noroeste 21 Noroeste 0 -- -- 32
2020-07-19 15:00:00 35 8 Noroeste 53 Sur 0 -- -- 33
2020-07-19 14:00:00 34.2 9 Oeste 15 Sudoeste 0 -- -- 36
2020-07-19 13:00:00 31.4 8 Oeste 15 Oeste 0 -- -- 47
2020-07-19 12:00:00 29.8 5 Sudeste 21 Sur 0 -- -- 50
2020-07-19 11:00:00 27.5 10 Sudeste 21 Sudeste 0 -- -- 57
2020-07-19 10:00:00 25 11 Sudeste 25 Sudeste 0 -- -- 66
2020-07-19 09:00:00 22.7 17 Sudeste 27 Sudeste 0 -- -- 75
2020-07-19 08:00:00 21.1 18 Sudeste 33 Sudeste 0 -- -- 81
2020-07-19 07:00:00 20 12 Sur 23 Sudeste 0 -- -- 85
2020-07-19 06:00:00 20.3 9 Sur 24 Sur 0 -- -- 84
2020-07-19 05:00:00 20.5 14 Sur 26 Sur 0 -- -- 84
2020-07-19 04:00:00 20.8 10 Sur 24 Sur 0 -- -- 83
2020-07-19 03:00:00 20.3 5 Norte 13 Noroeste 0 -- -- 71
2020-07-19 02:00:00 20.5 4 Sudoeste 12 Sudoeste 0 -- -- 61
2020-07-19 01:00:00 20.1 5 Sudoeste 9 Sudoeste 0 -- -- 52
2020-07-19 00:00:00 20.5 5 Sudoeste 9 Sudoeste 0 -- -- 50
2020-07-18 23:00:00 21.6 4 Sudoeste 8 Sudoeste 0 -- -- 47
2020-07-18 22:00:00 26.3 6 Sur 10 Sur 0 -- -- 38
2020-07-18 21:00:00 30.2 7 Noroeste 13 Noroeste 0 -- -- 33
2020-07-18 20:00:00 32.4 8 Noroeste 14 Noroeste 0 -- -- 31
2020-07-18 19:00:00 33.5 4 Oeste 16 Norte 0 -- -- 25
2020-07-18 18:00:00 33.4 5 Norte 16 Nordeste 0 -- -- 28
2020-07-18 17:00:00 33.4 6 Noroeste 18 Norte 0 -- -- 30
2020-07-18 16:00:00 32.4 5 Nordeste 19 Noroeste 0 -- -- 31
2020-07-18 15:00:00 31.4 6 Norte 18 Noroeste 0 -- -- 37
2020-07-18 14:00:00 29.6 9 Noroeste 19 Noroeste 0 -- -- 39
2020-07-18 13:00:00 27.7 9 Norte 24 Noroeste 0 -- -- 42
2020-07-18 12:00:00 25.9 5 Oeste 15 Noroeste 0 -- -- 47
2020-07-18 11:00:00 23.5 5 Norte 14 Norte 0 -- -- 52
2020-07-18 10:00:00 21 5 Nordeste 13 Nordeste 0 -- -- 60
2020-07-18 09:00:00 19.2 2 Este 8 Este 0 -- -- 66
2020-07-18 08:00:00 14.4 0 Calma 5 Este 0 -- -- 87
2020-07-18 07:00:00 12.1 2 Sudoeste 8 Sur 0 -- -- 88
2020-07-18 06:00:00 12.1 0 Calma 9 Sudoeste 0 -- -- 88
2020-07-18 05:00:00 13.5 4 Sur 8 Sur 0 -- -- 85
2020-07-18 04:00:00 14.8 5 Sur 9 Sudoeste 0 -- -- 81
2020-07-18 03:00:00 14.8 4 Sudoeste 8 Sur 0 -- -- 78
2020-07-18 02:00:00 15.9 0 Calma 9 Sudoeste 0 -- -- 75
2020-07-18 01:00:00 16.7 3 Sur 10 Sudoeste 0 -- -- 71
2020-07-18 00:00:00 17.4 5 Sudoeste 6 Sudoeste 0 -- -- 67
2020-07-17 23:00:00 19 0 Calma 10 Nordeste 0 -- -- 60
2020-07-17 22:00:00 21.4 11 Norte 20 Norte 0 -- -- 54
2020-07-17 21:00:00 24.6 12 Norte 29 Norte 0 -- -- 44
2020-07-17 20:00:00 27.2 16 Norte 28 Norte 0 -- -- 36
2020-07-17 19:00:00 28.9 10 Norte 39 Norte 0 -- -- 34
2020-07-17 18:00:00 29.5 14 Norte 32 Norte 0 -- -- 34
2020-07-17 17:00:00 30.1 10 Norte 26 Noroeste 0 -- -- 36
2020-07-17 16:00:00 29.5 16 Norte 33 Norte 0 -- -- 38
2020-07-17 15:00:00 28.3 13 Norte 29 Noroeste 0 -- -- 39
2020-07-17 14:00:00 27.6 10 Norte 25 Norte 0 -- -- 43
2020-07-17 13:00:00 26.6 11 Norte 29 Norte 0 -- -- 46
2020-07-17 12:00:00 24.6 11 Norte 24 Norte 0 -- -- 50
2020-07-17 11:00:00 22.4 12 Norte 23 Norte 0 -- -- 57
2020-07-17 10:00:00 20.2 9 Norte 18 Norte 0 -- -- 62
2020-07-17 09:00:00 17.8 3 Nordeste 12 Norte 0 -- -- 69
2020-07-17 08:00:00 14.6 4 Sur 7 Sudoeste 0 -- -- 83
2020-07-17 07:00:00 12.6 3 Sur 6 Sur 0 -- -- 87
2020-07-17 06:00:00 12.7 4 Sur 15 Noroeste 0 -- -- 86
2020-07-17 05:00:00 13.2 9 Noroeste 15 Noroeste 0 -- -- 87
2020-07-17 04:00:00 13.5 8 Noroeste 14 Noroeste 0 -- -- 83
2020-07-17 03:00:00 13.9 5 Norte 13 Noroeste 0 -- -- 78
2020-07-17 02:00:00 15.1 3 Sur 12 Noroeste 0 -- -- 73
2020-07-17 01:00:00 16.6 8 Noroeste 18 Noroeste 0 -- -- 69
2020-07-17 00:00:00 17.9 6 Noroeste 19 Noroeste 0 -- -- 65
2020-07-16 23:00:00 20.1 14 Noroeste 23 Noroeste 0 -- -- 61
2020-07-16 22:00:00 21.7 8 Noroeste 15 Norte 0 -- -- 56
2020-07-16 21:00:00 25.3 10 Norte 24 Norte 0 -- -- 46
2020-07-16 20:00:00 27.3 14 Noroeste 30 Norte 0 -- -- 44
2020-07-16 19:00:00 29.5 18 Norte 30 Norte 0 -- -- 40
2020-07-16 18:00:00 30.7 12 Norte 24 Noroeste 0 -- -- 39
2020-07-16 17:00:00 30.6 10 Norte 24 Norte 0 -- -- 34
2020-07-16 16:00:00 29.5 12 Noroeste 28 Noroeste 0 -- -- 37
2020-07-16 15:00:00 29 10 Noroeste 27 Noroeste 0 -- -- 38
2020-07-16 14:00:00 27.4 9 Norte 20 Nordeste 0 -- -- 39
2020-07-16 13:00:00 25.9 8 Norte 21 Norte 0 -- -- 42
2020-07-16 12:00:00 24.6 7 Norte 21 Nordeste 0 -- -- 44
2020-07-16 11:00:00 22.1 9 Nordeste 22 Norte 0 -- -- 50
2020-07-16 10:00:00 20 6 Norte 17 Norte 0 -- -- 57
2020-07-16 09:00:00 18 6 Nordeste 14 Norte 0 -- -- 64
2020-07-16 08:00:00 14.6 4 Sudoeste 7 Sudoeste 0 -- -- 76
2020-07-16 07:00:00 12.3 4 Sur 7 Sudoeste 0 -- -- 82
2020-07-16 06:00:00 12.8 2 Sur 6 Sudoeste 0 -- -- 79
2020-07-16 05:00:00 12.3 3 Sudoeste 9 Sudoeste 0 -- -- 78
2020-07-16 04:00:00 13.4 3 Sur 10 Sudoeste 0 -- -- 73
2020-07-16 03:00:00 14 6 Sudoeste 9 Norte 0 -- -- 69
2020-07-16 02:00:00 15.2 6 Norte 18 Norte 0 -- -- 65
2020-07-16 01:00:00 15.9 12 Noroeste 20 Noroeste 0 -- -- 63
2020-07-16 00:00:00 17 9 Norte 24 Norte 0 -- -- 58
2020-07-15 23:00:00 18.4 15 Norte 35 Norte 0 -- -- 54
2020-07-15 22:00:00 20 19 Norte 35 Norte 0 -- -- 51
2020-07-15 21:00:00 22 20 Norte 43 Norte 0 -- -- 46
2020-07-15 20:00:00 23.9 24 Norte 42 Norte 0 -- -- 42
2020-07-15 19:00:00 25 26 Norte 44 Norte 0 -- -- 41
2020-07-15 18:00:00 25.5 25 Norte 44 Nordeste 0 -- -- 43
2020-07-15 17:00:00 26.5 24 Norte 48 Nordeste 0 -- -- 42
2020-07-15 16:00:00 26 30 Norte 48 Norte 0 -- -- 41
2020-07-15 15:00:00 27.4 23 Norte 41 Norte 0 -- -- 39
2020-07-15 14:00:00 26.5 21 Norte 41 Norte 0 -- -- 43
2020-07-15 13:00:00 25.4 24 Norte 39 Norte 0 -- -- 47
2020-07-15 12:00:00 23.8 14 Norte 27 Nordeste 0 -- -- 49
2020-07-15 11:00:00 21.7 15 Norte 25 Norte 0 -- -- 50
2020-07-15 10:00:00 19.9 16 Norte 26 Norte 0 -- -- 54
2020-07-15 09:00:00 17.3 14 Norte 26 Norte 0 -- -- 62
2020-07-15 08:00:00 15.7 12 Norte 20 Norte 0 -- -- 66
2020-07-15 07:00:00 14.2 7 Noroeste 13 Noroeste 0 -- -- 72
2020-07-15 06:00:00 12.2 4 Noroeste 9 Norte 0 -- -- 78
2020-07-15 05:00:00 11.7 4 Sudoeste 8 Sudoeste 0 -- -- 74
2020-07-15 04:00:00 11.9 4 Sur 9 Sudoeste 0 -- -- 71
2020-07-15 03:00:00 13.2 2 Sudoeste 5 Sudoeste 0 -- -- 66
2020-07-15 02:00:00 14.5 0 Calma 18 Norte 0 -- -- 60
2020-07-15 01:00:00 15.6 8 Norte 15 Norte 0 -- -- 57
2020-07-15 00:00:00 16.8 6 Noroeste 11 Norte 0 -- -- 60
2020-07-14 23:00:00 19.3 3 Norte 12 Noroeste 0 -- -- 55
2020-07-14 22:00:00 21 7 Noroeste 26 Norte 0 -- -- 47
2020-07-14 21:00:00 25.5 16 Norte 27 Noroeste 0 -- -- 38
2020-07-14 20:00:00 28 9 Noroeste 21 Norte 0 -- -- 36
2020-07-14 19:00:00 28.7 4 Noroeste 19 Norte 0 -- -- 36
2020-07-14 18:00:00 28.7 9 Norte 21 Nordeste 0 -- -- 36
2020-07-14 17:00:00 27.5 13 Nordeste 27 Norte 0 -- -- 41
2020-07-14 16:00:00 29.9 7 Noroeste 21 Norte 0 -- -- 38
2020-07-14 15:00:00 28.8 6 Noroeste 19 Noroeste 0 -- -- 43
2020-07-14 14:00:00 27.7 6 Norte 15 Norte 0 -- -- 44
2020-07-14 13:00:00 25.8 7 Noroeste 17 Norte 0 -- -- 45
2020-07-14 12:00:00 23.1 9 Norte 17 Norte 0 -- -- 47
2020-07-14 11:00:00 21.3 5 Nordeste 15 Norte 0 -- -- 49
2020-07-14 10:00:00 19.1 7 Norte 14 Norte 0 -- -- 57
2020-07-14 09:00:00 17.6 3 Este 6 Este 0 -- -- 61
2020-07-14 08:00:00 13.5 0 Calma 5 Sudeste 0 -- -- 80
2020-07-14 07:00:00 12.3 3 Sur 8 Sudoeste 0 -- -- 79
2020-07-14 06:00:00 12.5 5 Sudoeste 9 Sudoeste 0 -- -- 76
2020-07-14 05:00:00 12.6 3 Oeste 11 Sudoeste 0 -- -- 75
2020-07-14 04:00:00 14 4 Sudoeste 8 Sudoeste 0 -- -- 71
2020-07-14 03:00:00 14.4 5 Oeste 17 Noroeste 0 -- -- 70
2020-07-14 02:00:00 15.7 13 Noroeste 22 Noroeste 0 -- -- 65
2020-07-14 01:00:00 16.7 12 Noroeste 20 Noroeste 0 -- -- 60
2020-07-14 00:00:00 17.6 10 Noroeste 18 Noroeste 0 -- -- 54
2020-07-13 23:00:00 19.3 2 Norte 14 Norte 0 -- -- 49
2020-07-13 22:00:00 21.4 6 Noroeste 23 Norte 0 -- -- 46
2020-07-13 21:00:00 25.7 16 Norte 32 Norte 0 -- -- 38
2020-07-13 20:00:00 28.3 20 Norte 35 Norte 0 -- -- 36
2020-07-13 19:00:00 30.1 21 Norte 34 Norte 0 -- -- 34
2020-07-13 18:00:00 31.2 18 Norte 37 Noroeste 0 -- -- 35
2020-07-13 17:00:00 32.1 17 Norte 33 Norte 0 -- -- 34
2020-07-13 16:00:00 32.1 15 Norte 30 Noroeste 0 -- -- 36
2020-07-13 15:00:00 31.7 9 Noroeste 29 Noroeste 0 -- -- 37
2020-07-13 14:00:00 30.2 12 Noroeste 21 Noroeste 0 -- -- 45
2020-07-13 13:00:00 29 8 Noroeste 23 Norte 0 -- -- 47
2020-07-13 12:00:00 27.3 9 Noroeste 17 Noroeste 0 -- -- 51
2020-07-13 11:00:00 25.8 6 Noroeste 15 Oeste 0 -- -- 55
2020-07-13 10:00:00 23.4 3 Norte 13 Noroeste 0 -- -- 65
2020-07-13 09:00:00 21.5 3 Sudoeste 8 Este 0 -- -- 72
2020-07-13 08:00:00 18.7 0 Calma 3 Oeste 0 -- -- 87
2020-07-13 07:00:00 15.3 0 Calma 4 Este 0 -- -- 91
2020-07-13 06:00:00 15.8 2 Nordeste 5 Nordeste 0 -- -- 89
2020-07-13 05:00:00 16.1 2 Oeste 10 Oeste 0 -- -- 88
2020-07-13 04:00:00 16.9 0 Calma 10 Sudoeste 0 -- -- 85
2020-07-13 03:00:00 19 0 Calma 8 Oeste 0 -- -- 78
2020-07-13 02:00:00 19.8 3 Sudoeste 9 Sur 0 -- -- 75
2020-07-13 01:00:00 20.5 4 Sudoeste 9 Sudoeste 0 -- -- 73
2020-07-13 00:00:00 22.1 5 Sudoeste 13 Noroeste 0 -- -- 70